Time;durP1;ratioP1;P1;durP2;ratioP2;P2;SDS_P1;SDS_P2;PMS_P1;PMS_P2;Temp;Humidity;BMP_temperature;BMP_pressure;BME280_temperature;BME280_humidity;BME280_pressure;Samples;Min_cycle;Max_cycle;Signal;HPM_P1;HPM_P2
2021/11/28 00:00:50;;;;;;;;;;;1.80;99.90;;;;;;5020675;28;19971;-60
2021/11/28 00:03:17;;;;;;;;;;;1.80;99.90;;;;;;5025034;28;19917;-59
2021/11/28 00:05:45;;;;;;;;;;;1.80;99.90;;;;;;5023264;28;19956;-59
2021/11/28 00:08:19;;;;;;;;;;;1.80;99.90;;;;;;5025426;28;20554;-55
2021/11/28 00:10:52;;;;;;;;;;;1.80;99.90;;;;;;5006019;28;20001;-56
2021/11/28 00:15:53;;;;;;;;;;;1.70;99.90;;;;;;5022185;28;19917;-59
2021/11/28 00:18:19;;;;;;;;;;;1.60;99.90;;;;;;5024661;28;20101;-56
2021/11/28 00:20:44;;;;;;;;;;;1.60;99.90;;;;;;5027381;28;19917;-55
2021/11/28 00:23:10;;;;;;;;;;;1.60;99.90;;;;;;5011326;28;19915;-59
2021/11/28 00:25:35;;;;;;;;;;;1.60;99.90;;;;;;5028010;28;20486;-58
2021/11/28 00:28:01;;;;;;;;;;;1.60;99.90;;;;;;5029769;28;19909;-57
2021/11/28 00:30:28;;;;;;;;;;;1.50;99.90;;;;;;5028422;28;19917;-59
2021/11/28 00:32:54;;;;;;;;;;;1.50;99.90;;;;;;5026702;28;19913;-57
2021/11/28 00:35:20;;;;;;;;;;;1.50;99.90;;;;;;5026586;28;19936;-59
2021/11/28 00:37:45;;;;;;;;;;;1.50;99.90;;;;;;5028985;28;20382;-57
2021/11/28 00:40:11;;;;;;;;;;;1.50;99.90;;;;;;5025765;28;19921;-61
2021/11/28 00:42:37;;;;;;;;;;;1.50;99.90;;;;;;5028539;28;19918;-58
2021/11/28 00:45:02;;;;;;;;;;;1.40;99.90;;;;;;5027352;28;19913;-57
2021/11/28 00:47:28;;;;;;;;;;;1.40;99.90;;;;;;5028293;28;19940;-57
2021/11/28 00:50:23;;;;;;;;;;;1.40;99.90;;;;;;5024680;28;19959;-60
2021/11/28 00:52:49;;;;;;;;;;;1.40;99.90;;;;;;5028078;28;19913;-57
2021/11/28 00:55:14;;;;;;;;;;;1.40;99.90;;;;;;5026635;28;19967;-57
2021/11/28 00:57:40;;;;;;;;;;;1.40;99.90;;;;;;5027870;28;19909;-60
2021/11/28 01:00:07;;;;;;;;;;;1.40;99.90;;;;;;5026643;28;20400;-59
2021/11/28 01:02:33;;;;;;;;;;;1.40;99.90;;;;;;5027737;28;19916;-59
2021/11/28 01:04:59;;;;;;;;;;;1.40;99.90;;;;;;5023534;28;19928;-56
2021/11/28 01:07:27;;;;;;;;;;;1.40;99.90;;;;;;5027343;28;19951;-57
2021/11/28 01:09:53;;;;;;;;;;;1.40;99.90;;;;;;5026957;28;19913;-56
2021/11/28 01:12:19;;;;;;;;;;;1.40;99.90;;;;;;5026545;28;19913;-56
2021/11/28 01:14:45;;;;;;;;;;;1.40;99.90;;;;;;5027928;28;19990;-54
2021/11/28 01:17:10;;;;;;;;;;;1.40;99.90;;;;;;5026691;28;20381;-57
2021/11/28 01:19:36;;;;;;;;;;;1.30;99.90;;;;;;5026396;28;20493;-58
2021/11/28 01:22:07;;;;;;;;;;;1.30;99.90;;;;;;5027510;28;19909;-57
2021/11/28 01:24:32;;;;;;;;;;;1.30;99.90;;;;;;5028201;28;19931;-60
2021/11/28 01:26:58;;;;;;;;;;;1.20;99.90;;;;;;5027604;28;20362;-60
2021/11/28 01:29:24;;;;;;;;;;;1.10;99.90;;;;;;5027983;28;19913;-57
2021/11/28 01:31:49;;;;;;;;;;;1.10;99.90;;;;;;5028460;28;20291;-54
2021/11/28 01:34:15;;;;;;;;;;;1.10;99.90;;;;;;5028196;28;19913;-59
2021/11/28 01:36:40;;;;;;;;;;;1.10;99.90;;;;;;5025436;28;19917;-59
2021/11/28 01:39:07;;;;;;;;;;;1.10;99.90;;;;;;5026811;28;19917;-59
2021/11/28 01:41:33;;;;;;;;;;;1.10;99.90;;;;;;5026932;28;19913;-57
2021/11/28 01:43:58;;;;;;;;;;;1.10;99.90;;;;;;5028721;28;20055;-59
2021/11/28 01:46:25;;;;;;;;;;;1.10;99.90;;;;;;5026233;28;19913;-57
2021/11/28 01:48:51;;;;;;;;;;;1.10;99.90;;;;;;5028335;28;20274;-59
2021/11/28 01:51:16;;;;;;;;;;;1.10;99.90;;;;;;5024714;28;20464;-60
2021/11/28 01:53:42;;;;;;;;;;;1.10;99.90;;;;;;5027141;28;19909;-57
2021/11/28 01:56:08;;;;;;;;;;;1.10;99.90;;;;;;5026437;28;20046;-55
2021/11/28 01:58:34;;;;;;;;;;;1.10;99.90;;;;;;5027051;28;20400;-58
2021/11/28 02:01:02;;;;;;;;;;;1.10;99.90;;;;;;5026275;28;19924;-59
2021/11/28 02:03:27;;;;;;;;;;;1.00;99.90;;;;;;5026752;28;20320;-57
2021/11/28 02:05:54;;;;;;;;;;;1.00;99.90;;;;;;5025515;28;19917;-59
2021/11/28 02:08:20;;;;;;;;;;;0.90;99.90;;;;;;5026373;28;19917;-59
2021/11/28 02:10:45;;;;;;;;;;;1.00;99.90;;;;;;5022459;28;19916;-59
2021/11/28 02:13:12;;;;;;;;;;;1.00;99.90;;;;;;5027219;28;20004;-59
2021/11/28 02:15:38;;;;;;;;;;;1.00;99.90;;;;;;5026321;28;19988;-59
2021/11/28 02:18:04;;;;;;;;;;;1.00;99.90;;;;;;5027423;28;19953;-58
2021/11/28 02:20:30;;;;;;;;;;;1.00;99.90;;;;;;5026524;28;20006;-58
2021/11/28 02:22:56;;;;;;;;;;;1.00;99.90;;;;;;5027226;28;20251;-57
2021/11/28 02:25:24;;;;;;;;;;;0.90;99.90;;;;;;5022785;28;20285;-59
2021/11/28 02:27:50;;;;;;;;;;;1.00;99.90;;;;;;5027073;28;19915;-59
2021/11/28 02:30:19;;;;;;;;;;;1.00;99.90;;;;;;5025660;28;20411;-58
2021/11/28 02:32:46;;;;;;;;;;;1.00;99.90;;;;;;5025524;28;20028;-56
2021/11/28 02:35:14;;;;;;;;;;;1.00;99.90;;;;;;5025772;28;19913;-59
2021/11/28 02:37:41;;;;;;;;;;;1.00;99.90;;;;;;5026894;28;19956;-58
2021/11/28 02:40:06;;;;;;;;;;;1.00;99.90;;;;;;5024066;28;20015;-57
2021/11/28 02:42:32;;;;;;;;;;;1.00;99.90;;;;;;5022725;28;20003;-59
2021/11/28 02:44:57;;;;;;;;;;;1.00;99.90;;;;;;5026451;28;19932;-59
2021/11/28 02:47:23;;;;;;;;;;;1.00;99.90;;;;;;5024907;28;19952;-61
2021/11/28 02:49:49;;;;;;;;;;;1.00;99.90;;;;;;5026996;28;20357;-59
2021/11/28 02:52:14;;;;;;;;;;;1.00;99.90;;;;;;5025690;28;19970;-58
2021/11/28 02:54:40;;;;;;;;;;;1.10;99.90;;;;;;5026586;28;20309;-56
2021/11/28 02:57:08;;;;;;;;;;;1.00;99.90;;;;;;5024655;28;19921;-55
2021/11/28 02:59:33;;;;;;;;;;;1.00;99.90;;;;;;5021214;28;19926;-57
2021/11/28 03:01:59;;;;;;;;;;;1.10;99.90;;;;;;5025541;28;19916;-61
2021/11/28 03:04:24;;;;;;;;;;;1.10;99.90;;;;;;5024888;28;19909;-54
2021/11/28 03:06:50;;;;;;;;;;;1.10;99.90;;;;;;5026615;28;19948;-57
2021/11/28 03:09:15;;;;;;;;;;;1.20;99.90;;;;;;5026551;28;19913;-61
2021/11/28 03:11:41;;;;;;;;;;;1.20;99.90;;;;;;5025836;28;19935;-58
2021/11/28 03:14:06;;;;;;;;;;;1.30;99.90;;;;;;5026683;28;19924;-55
2021/11/28 03:16:32;;;;;;;;;;;1.30;99.90;;;;;;5022626;28;19917;-61
2021/11/28 03:18:57;;;;;;;;;;;1.30;99.90;;;;;;5026366;28;19928;-59
2021/11/28 03:21:24;;;;;;;;;;;1.30;99.90;;;;;;5023737;28;19913;-59
2021/11/28 03:23:51;;;;;;;;;;;1.30;99.90;;;;;;5026175;28;19915;-58
2021/11/28 03:26:18;;;;;;;;;;;1.40;99.90;;;;;;5024523;28;19917;-58
2021/11/28 03:28:46;;;;;;;;;;;1.40;99.90;;;;;;5025722;28;19913;-61
2021/11/28 03:31:12;;;;;;;;;;;1.40;99.90;;;;;;5022168;28;19967;-59
2021/11/28 03:33:38;;;;;;;;;;;1.40;99.90;;;;;;5007609;28;19918;-54
2021/11/28 03:36:04;;;;;;;;;;;1.40;99.90;;;;;;5024559;28;19980;-59
2021/11/28 03:38:29;;;;;;;;;;;1.40;99.90;;;;;;5025517;28;19914;-57
2021/11/28 03:40:55;;;;;;;;;;;1.40;99.90;;;;;;5023617;28;19920;-60
2021/11/28 03:43:20;;;;;;;;;;;1.40;99.90;;;;;;5025396;28;20350;-57
2021/11/28 03:45:46;;;;;;;;;;;1.40;99.90;;;;;;5025053;28;19917;-59
2021/11/28 03:48:11;;;;;;;;;;;1.40;99.90;;;;;;5022172;28;20221;-60
2021/11/28 03:50:37;;;;;;;;;;;1.40;99.90;;;;;;5023626;28;19914;-58
2021/11/28 03:53:02;;;;;;;;;;;1.40;99.90;;;;;;5028034;28;19920;-60
2021/11/28 03:55:28;;;;;;;;;;;1.40;99.90;;;;;;5028007;28;19944;-61
2021/11/28 03:57:53;;;;;;;;;;;1.40;99.90;;;;;;5030014;28;20324;-57
2021/11/28 04:00:19;;;;;;;;;;;1.40;99.90;;;;;;5027233;28;19928;-59
2021/11/28 04:02:44;;;;;;;;;;;1.40;99.90;;;;;;5027954;28;19917;-59
2021/11/28 04:05:10;;;;;;;;;;;1.30;99.90;;;;;;5028230;28;19913;-57
2021/11/28 04:07:36;;;;;;;;;;;1.30;99.90;;;;;;5030093;28;19991;-60
2021/11/28 04:10:02;;;;;;;;;;;1.30;99.90;;;;;;5028633;28;20007;-59
2021/11/28 04:12:27;;;;;;;;;;;1.30;99.90;;;;;;5029623;28;20024;-55
2021/11/28 04:14:57;;;;;;;;;;;1.20;99.90;;;;;;5029748;28;20115;-59
2021/11/28 04:17:23;;;;;;;;;;;1.20;99.90;;;;;;5029867;28;19944;-59
2021/11/28 04:19:49;;;;;;;;;;;1.20;99.90;;;;;;5028264;28;20036;-57
2021/11/28 04:22:15;;;;;;;;;;;1.20;99.90;;;;;;5026340;28;21124;-60
2021/11/28 04:24:40;;;;;;;;;;;1.10;99.90;;;;;;5028251;28;20121;-57
2021/11/28 04:27:06;;;;;;;;;;;1.10;99.90;;;;;;5029234;28;19910;-57
2021/11/28 04:29:31;;;;;;;;;;;1.10;99.90;;;;;;5027511;28;19970;-58
2021/11/28 04:31:57;;;;;;;;;;;1.10;99.90;;;;;;5029158;28;19968;-59
2021/11/28 04:34:22;;;;;;;;;;;1.10;99.90;;;;;;5027529;28;19917;-57
2021/11/28 04:36:48;;;;;;;;;;;1.00;99.90;;;;;;5026647;28;19913;-59
2021/11/28 04:39:13;;;;;;;;;;;1.00;99.90;;;;;;5027356;28;20357;-61
2021/11/28 04:41:39;;;;;;;;;;;1.00;99.90;;;;;;5028809;28;19909;-56
2021/11/28 04:44:04;;;;;;;;;;;0.90;99.90;;;;;;5026753;28;19967;-60
2021/11/28 04:46:30;;;;;;;;;;;0.90;99.90;;;;;;5028194;28;20069;-58
2021/11/28 04:48:55;;;;;;;;;;;0.90;99.90;;;;;;5028154;28;19909;-61
2021/11/28 04:51:21;;;;;;;;;;;0.80;99.90;;;;;;5028089;28;19917;-59
2021/11/28 04:53:46;;;;;;;;;;;0.80;99.90;;;;;;5027064;28;20020;-59
2021/11/28 04:56:12;;;;;;;;;;;0.80;99.90;;;;;;5027462;28;20274;-59
2021/11/28 04:58:37;;;;;;;;;;;0.80;99.90;;;;;;5028905;28;20361;-60
2021/11/28 05:01:03;;;;;;;;;;;0.80;99.90;;;;;;5010432;28;20108;-56
2021/11/28 05:03:28;;;;;;;;;;;0.80;99.90;;;;;;5028933;28;19923;-60
2021/11/28 05:05:54;;;;;;;;;;;0.80;99.90;;;;;;5027835;28;20026;-57
2021/11/28 05:08:19;;;;;;;;;;;0.80;99.90;;;;;;5028734;28;19988;-56
2021/11/28 05:10:45;;;;;;;;;;;0.70;99.90;;;;;;5024341;28;19913;-58
2021/11/28 05:13:10;;;;;;;;;;;0.70;99.90;;;;;;5028824;28;19913;-60
2021/11/28 05:15:36;;;;;;;;;;;0.60;99.90;;;;;;5028494;28;19929;-56
2021/11/28 05:18:01;;;;;;;;;;;0.60;99.90;;;;;;5026617;28;19917;-58
2021/11/28 05:20:26;;;;;;;;;;;0.60;99.90;;;;;;5027599;28;19920;-60
2021/11/28 05:22:52;;;;;;;;;;;0.60;99.90;;;;;;5028617;28;20462;-57
2021/11/28 05:25:17;;;;;;;;;;;0.60;99.90;;;;;;5027699;28;19916;-57
2021/11/28 05:27:46;;;;;;;;;;;0.60;99.90;;;;;;5025040;28;19924;-60
2021/11/28 05:30:11;;;;;;;;;;;0.60;99.90;;;;;;5028125;28;20338;-56
2021/11/28 05:32:37;;;;;;;;;;;0.60;99.90;;;;;;5025900;28;19964;-59
2021/11/28 05:35:02;;;;;;;;;;;0.60;99.90;;;;;;5028243;28;19932;-59
2021/11/28 05:37:28;;;;;;;;;;;0.60;99.90;;;;;;5026354;28;19913;-57
2021/11/28 05:39:54;;;;;;;;;;;0.60;99.90;;;;;;5028357;28;19953;-57
2021/11/28 05:42:19;;;;;;;;;;;0.60;99.90;;;;;;5024908;28;19923;-60
2021/11/28 05:44:45;;;;;;;;;;;0.60;99.90;;;;;;5025127;28;20004;-56
2021/11/28 05:47:10;;;;;;;;;;;0.60;99.90;;;;;;5025387;28;19944;-58
2021/11/28 05:49:35;;;;;;;;;;;0.60;99.90;;;;;;5028847;28;19917;-59
2021/11/28 05:52:01;;;;;;;;;;;0.60;99.90;;;;;;5026801;28;19931;-59
2021/11/28 05:54:27;;;;;;;;;;;0.60;99.90;;;;;;5027394;28;19991;-55
2021/11/28 05:56:52;;;;;;;;;;;0.60;99.90;;;;;;5028426;28;19952;-60
2021/11/28 05:59:18;;;;;;;;;;;0.50;99.90;;;;;;5026523;28;19924;-59
2021/11/28 06:01:43;;;;;;;;;;;0.50;99.90;;;;;;5025589;28;19956;-57
2021/11/28 06:04:09;;;;;;;;;;;0.50;99.90;;;;;;5027986;28;19947;-60
2021/11/28 06:06:34;;;;;;;;;;;0.50;99.90;;;;;;5027175;28;19956;-58
2021/11/28 06:09:00;;;;;;;;;;;0.50;99.90;;;;;;5027719;28;20008;-57
2021/11/28 06:11:25;;;;;;;;;;;0.50;99.90;;;;;;5026122;28;19936;-55
2021/11/28 06:13:51;;;;;;;;;;;0.50;99.90;;;;;;5026957;28;19909;-60
2021/11/28 06:16:17;;;;;;;;;;;0.50;99.90;;;;;;5021855;28;19974;-60
2021/11/28 06:18:42;;;;;;;;;;;0.50;99.90;;;;;;5025936;28;19920;-59
2021/11/28 06:21:08;;;;;;;;;;;0.50;99.90;;;;;;5020943;28;20344;-57
2021/11/28 06:23:33;;;;;;;;;;;0.60;99.90;;;;;;5026213;28;20389;-61
2021/11/28 06:25:59;;;;;;;;;;;0.60;99.90;;;;;;5024840;28;19917;-57
2021/11/28 06:28:24;;;;;;;;;;;0.60;99.90;;;;;;5021715;28;19967;-59
2021/11/28 06:30:49;;;;;;;;;;;0.60;99.90;;;;;;5025619;28;19939;-60
2021/11/28 06:33:15;;;;;;;;;;;0.60;99.90;;;;;;5026103;28;20024;-56
2021/11/28 06:35:41;;;;;;;;;;;0.70;99.90;;;;;;5024141;28;20348;-57
2021/11/28 06:38:07;;;;;;;;;;;0.70;99.90;;;;;;5026073;28;19909;-57
2021/11/28 06:40:32;;;;;;;;;;;0.70;99.90;;;;;;5024850;28;19928;-56
2021/11/28 06:42:57;;;;;;;;;;;0.70;99.90;;;;;;5027076;28;20370;-58
2021/11/28 06:45:23;;;;;;;;;;;0.70;99.90;;;;;;5022697;28;19952;-58
2021/11/28 06:47:48;;;;;;;;;;;0.70;99.90;;;;;;5026649;28;19913;-57
2021/11/28 06:50:14;;;;;;;;;;;0.70;99.90;;;;;;5026338;28;19909;-58
2021/11/28 06:52:40;;;;;;;;;;;0.70;99.90;;;;;;5025693;28;19924;-57
2021/11/28 06:55:06;;;;;;;;;;;0.70;99.90;;;;;;5025349;28;19913;-59
2021/11/28 06:57:31;;;;;;;;;;;0.70;99.90;;;;;;5025937;28;19913;-59
2021/11/28 06:59:57;;;;;;;;;;;0.70;99.90;;;;;;5025526;28;20317;-57
2021/11/28 07:02:22;;;;;;;;;;;0.70;99.90;;;;;;5006074;28;19913;-55
2021/11/28 07:04:48;;;;;;;;;;;0.80;99.90;;;;;;5025347;28;19916;-60
2021/11/28 07:07:13;;;;;;;;;;;0.80;99.90;;;;;;5025825;28;19913;-56
2021/11/28 07:09:39;;;;;;;;;;;0.80;99.90;;;;;;5024695;28;19920;-57
2021/11/28 07:12:04;;;;;;;;;;;0.80;99.90;;;;;;5025758;28;20031;-58
2021/11/28 07:14:30;;;;;;;;;;;0.80;99.90;;;;;;5033285;22;20024;-59
2021/11/28 07:16:56;;;;;;;;;;;0.90;99.90;;;;;;5025150;28;20388;-58
2021/11/28 07:19:22;;;;;;;;;;;0.90;99.90;;;;;;5025552;28;19932;-57
2021/11/28 07:21:47;;;;;;;;;;;0.90;99.90;;;;;;5026380;28;20292;-54
2021/11/28 07:24:12;;;;;;;;;;;1.00;99.90;;;;;;5025192;28;19917;-58
2021/11/28 07:26:38;;;;;;;;;;;1.00;99.90;;;;;;5026608;28;19917;-54
2021/11/28 07:29:03;;;;;;;;;;;1.10;99.90;;;;;;5025991;28;20398;-58
2021/11/28 07:31:29;;;;;;;;;;;1.10;99.90;;;;;;5025970;28;19943;-59
2021/11/28 07:33:54;;;;;;;;;;;1.20;99.90;;;;;;5023986;28;20195;-60
2021/11/28 07:36:20;;;;;;;;;;;1.20;99.90;;;;;;5024822;28;19909;-57
2021/11/28 07:38:45;;;;;;;;;;;1.20;99.90;;;;;;5025560;28;20008;-60
2021/11/28 07:41:11;;;;;;;;;;;1.30;99.90;;;;;;5026162;28;20000;-56
2021/11/28 07:43:37;;;;;;;;;;;1.40;99.90;;;;;;5025109;28;19924;-60
2021/11/28 07:46:02;;;;;;;;;;;1.40;99.90;;;;;;5026300;28;20100;-59
2021/11/28 07:48:28;;;;;;;;;;;1.50;99.90;;;;;;5025966;28;19924;-56
2021/11/28 07:50:53;;;;;;;;;;;1.50;99.90;;;;;;5024418;28;19913;-58
2021/11/28 07:53:19;;;;;;;;;;;1.60;99.90;;;;;;5025144;28;20003;-59
2021/11/28 07:55:45;;;;;;;;;;;1.60;99.90;;;;;;5025897;28;19909;-57
2021/11/28 07:58:10;;;;;;;;;;;1.70;99.90;;;;;;5025741;28;20295;-59
2021/11/28 08:00:36;;;;;;;;;;;1.70;99.90;;;;;;5025534;28;20324;-56
2021/11/28 08:03:02;;;;;;;;;;;1.80;99.90;;;;;;5025480;28;19917;-60
2021/11/28 08:05:28;;;;;;;;;;;1.90;99.90;;;;;;5024626;28;20009;-59
2021/11/28 08:07:54;;;;;;;;;;;1.90;99.90;;;;;;5025677;28;20376;-59
2021/11/28 08:10:19;;;;;;;;;;;2.00;99.90;;;;;;5025457;28;19913;-57
2021/11/28 08:12:45;;;;;;;;;;;2.00;99.90;;;;;;5024683;28;19921;-59
2021/11/28 08:15:15;;;;;;;;;;;2.00;99.90;;;;;;5024878;28;20066;-57
2021/11/28 08:17:41;;;;;;;;;;;2.00;99.90;;;;;;5026003;28;19913;-61
2021/11/28 08:20:07;;;;;;;;;;;2.00;99.90;;;;;;5025891;28;19922;-57
2021/11/28 08:22:33;;;;;;;;;;;2.00;99.90;;;;;;5023957;28;19924;-61
2021/11/28 08:24:58;;;;;;;;;;;2.10;99.90;;;;;;5025514;28;19913;-58
2021/11/28 08:27:24;;;;;;;;;;;2.10;99.90;;;;;;5025112;28;20051;-61
2021/11/28 08:29:50;;;;;;;;;;;2.10;99.90;;;;;;5025601;28;20373;-60
2021/11/28 08:32:16;;;;;;;;;;;2.00;99.90;;;;;;5025532;28;19920;-58
2021/11/28 08:34:43;;;;;;;;;;;2.00;99.90;;;;;;5026309;28;19913;-57
2021/11/28 08:37:08;;;;;;;;;;;1.90;99.90;;;;;;5024765;28;20382;-59
2021/11/28 08:39:34;;;;;;;;;;;1.90;99.90;;;;;;5027859;28;19924;-57
2021/11/28 08:42:00;;;;;;;;;;;1.90;99.90;;;;;;5028513;28;19916;-57
2021/11/28 08:44:25;;;;;;;;;;;2.00;99.90;;;;;;5028885;28;19917;-57
2021/11/28 08:46:51;;;;;;;;;;;2.00;99.90;;;;;;5029932;28;19915;-57
2021/11/28 08:49:17;;;;;;;;;;;2.00;99.90;;;;;;5027878;28;20392;-57
2021/11/28 08:51:43;;;;;;;;;;;2.00;99.90;;;;;;5029116;28;19913;-59
2021/11/28 08:54:13;;;;;;;;;;;2.10;99.90;;;;;;5028144;28;20402;-59
2021/11/28 08:56:39;;;;;;;;;;;2.10;99.90;;;;;;5029463;28;19913;-57
2021/11/28 08:59:04;;;;;;;;;;;2.20;99.90;;;;;;5028076;28;20486;-58
2021/11/28 09:01:29;;;;;;;;;;;2.20;99.90;;;;;;5029306;28;19963;-58
2021/11/28 09:03:55;;;;;;;;;;;2.20;99.90;;;;;;5029016;28;19926;-60
2021/11/28 09:06:20;;;;;;;;;;;2.30;99.90;;;;;;5027944;28;19913;-55
2021/11/28 09:08:46;;;;;;;;;;;2.30;99.90;;;;;;5029046;28;19909;-57
2021/11/28 09:11:11;;;;;;;;;;;2.40;99.90;;;;;;5028900;28;19996;-60
2021/11/28 09:13:37;;;;;;;;;;;2.50;99.90;;;;;;5027554;28;20320;-57
2021/11/28 09:16:03;;;;;;;;;;;2.60;99.90;;;;;;5028216;28;19975;-57
2021/11/28 09:18:39;;;;;;;;;;;2.70;99.90;;;;;;5027452;28;20399;-55
2021/11/28 09:21:04;;;;;;;;;;;2.80;99.90;;;;;;5028054;28;19953;-57
2021/11/28 09:26:14;;;;;;;;;;;3.10;99.90;;;;;;5027701;28;19988;-59
2021/11/28 09:28:40;;;;;;;;;;;3.20;99.90;;;;;;5028159;28;19964;-57
2021/11/28 09:31:10;;;;;;;;;;;3.30;99.90;;;;;;5027241;28;19913;-57
2021/11/28 09:33:37;;;;;;;;;;;3.30;99.90;;;;;;5027259;28;20016;-55
2021/11/28 09:36:03;;;;;;;;;;;3.30;99.90;;;;;;5027277;28;20000;-59
2021/11/28 09:38:28;;;;;;;;;;;3.40;99.90;;;;;;5027668;28;20445;-59
2021/11/28 09:40:54;;;;;;;;;;;3.40;99.90;;;;;;5025864;28;20382;-59
2021/11/28 09:43:21;;;;;;;;;;;3.40;99.90;;;;;;5027587;28;20655;-57
2021/11/28 09:45:47;;;;;;;;;;;3.40;99.90;;;;;;5027926;28;19917;-60
2021/11/28 09:48:12;;;;;;;;;;;3.40;99.90;;;;;;5027133;28;20358;-60
2021/11/28 09:50:38;;;;;;;;;;;3.50;99.90;;;;;;5026972;28;20377;-56
2021/11/28 09:53:04;;;;;;;;;;;3.50;99.90;;;;;;5027189;28;20080;-56
2021/11/28 09:55:30;;;;;;;;;;;3.50;99.90;;;;;;5027761;28;19975;-59
2021/11/28 09:57:56;;;;;;;;;;;3.60;99.90;;;;;;5026357;28;19917;-58
2021/11/28 10:00:22;;;;;;;;;;;3.70;99.90;;;;;;5026730;28;19917;-56
2021/11/28 10:02:47;;;;;;;;;;;3.70;99.90;;;;;;5027633;28;20365;-56
2021/11/28 10:05:14;;;;;;;;;;;3.80;99.90;;;;;;5027139;28;19986;-57
2021/11/28 10:07:43;;;;;;;;;;;3.90;99.90;;;;;;5027339;28;19917;-59
2021/11/28 10:10:09;;;;;;;;;;;3.90;99.90;;;;;;5025604;28;20378;-57
2021/11/28 10:12:40;;;;;;;;;;;4.00;99.90;;;;;;5027180;28;20271;-59
2021/11/28 10:15:11;;;;;;;;;;;4.10;99.90;;;;;;5025415;28;19963;-56
2021/11/28 10:17:37;;;;;;;;;;;4.20;99.90;;;;;;5026172;28;19936;-57
2021/11/28 10:20:07;;;;;;;;;;;4.20;99.90;;;;;;5027099;28;19917;-59
2021/11/28 10:22:33;;;;;;;;;;;4.20;99.90;;;;;;5026518;28;19913;-57
2021/11/28 10:25:03;;;;;;;;;;;4.20;99.90;;;;;;5026067;28;20590;-57
2021/11/28 10:27:39;;;;;;;;;;;4.30;99.90;;;;;;5026366;28;19924;-60
2021/11/28 10:30:06;;;;;;;;;;;4.30;99.90;;;;;;5027424;28;20012;-61
2021/11/28 10:32:32;;;;;;;;;;;4.30;99.90;;;;;;5026771;28;19909;-60
2021/11/28 10:34:57;;;;;;;;;;;4.30;99.90;;;;;;5027226;28;20365;-57
2021/11/28 10:37:23;;;;;;;;;;;4.40;99.90;;;;;;5025451;28;19995;-57
2021/11/28 10:39:52;;;;;;;;;;;4.40;99.90;;;;;;5026949;28;19964;-60
2021/11/28 10:42:22;;;;;;;;;;;4.50;99.90;;;;;;5025855;28;19914;-57
2021/11/28 10:45:04;;;;;;;;;;;4.50;99.90;;;;;;5026991;28;19921;-58
2021/11/28 10:47:32;;;;;;;;;;;4.50;99.90;;;;;;5026012;28;19917;-60
2021/11/28 10:50:04;;;;;;;;;;;4.60;99.90;;;;;;5026884;28;19999;-59
2021/11/28 10:52:30;;;;;;;;;;;4.60;99.90;;;;;;5026433;28;20004;-57
2021/11/28 10:54:56;;;;;;;;;;;4.50;99.90;;;;;;5023859;28;20023;-56
2021/11/28 10:57:24;;;;;;;;;;;4.50;99.90;;;;;;5026444;28;19913;-60
2021/11/28 10:59:57;;;;;;;;;;;4.50;99.90;;;;;;5025261;28;19920;-56
2021/11/28 11:02:33;;;;;;;;;;;4.40;99.90;;;;;;5025946;28;20007;-59
2021/11/28 11:04:59;;;;;;;;;;;4.40;99.90;;;;;;5025976;28;19917;-58
2021/11/28 11:07:25;;;;;;;;;;;4.40;99.90;;;;;;5026406;28;20301;-59
2021/11/28 11:09:52;;;;;;;;;;;4.40;99.90;;;;;;5024496;28;19913;-58
2021/11/28 11:12:22;;;;;;;;;;;4.40;99.90;;;;;;5026052;28;19917;-57
2021/11/28 11:14:48;;;;;;;;;;;4.40;99.90;;;;;;5026596;28;19976;-57
2021/11/28 11:17:14;;;;;;;;;;;4.30;99.90;;;;;;5026731;28;20309;-58
2021/11/28 11:19:44;;;;;;;;;;;4.30;99.90;;;;;;5026072;28;19925;-57
2021/11/28 11:22:15;;;;;;;;;;;4.30;99.90;;;;;;5026087;28;20059;-55
2021/11/28 11:24:51;;;;;;;;;;;4.30;99.90;;;;;;5024589;28;19933;-57
2021/11/28 11:27:19;;;;;;;;;;;4.30;99.90;;;;;;5026079;28;19909;-59
2021/11/28 11:29:48;;;;;;;;;;;4.20;99.90;;;;;;5026331;28;19913;-56
2021/11/28 11:32:15;;;;;;;;;;;4.30;99.90;;;;;;5026023;28;20341;-59
2021/11/28 11:34:47;;;;;;;;;;;4.30;99.90;;;;;;5026712;28;19968;-59
2021/11/28 11:37:13;;;;;;;;;;;4.30;99.90;;;;;;5025961;28;19920;-57
2021/11/28 11:39:44;;;;;;;;;;;4.40;99.90;;;;;;5025536;28;19991;-56
2021/11/28 11:42:11;;;;;;;;;;;4.40;99.90;;;;;;5023928;28;19932;-59
2021/11/28 11:44:37;;;;;;;;;;;4.50;99.90;;;;;;5025144;28;19913;-56
2021/11/28 11:47:04;;;;;;;;;;;4.50;99.90;;;;;;5025800;28;20043;-57
2021/11/28 11:49:29;;;;;;;;;;;4.50;99.90;;;;;;5025671;28;20443;-54
2021/11/28 11:51:56;;;;;;;;;;;4.50;99.90;;;;;;5026105;28;19909;-57
2021/11/28 11:54:30;;;;;;;;;;;4.50;99.90;;;;;;5025668;28;19913;-58
2021/11/28 11:57:00;;;;;;;;;;;4.50;99.90;;;;;;5023881;28;20002;-58
2021/11/28 11:59:34;;;;;;;;;;;4.50;99.90;;;;;;5025269;28;19916;-58
2021/11/28 12:02:04;;;;;;;;;;;4.50;99.90;;;;;;5024531;28;19944;-57
2021/11/28 12:04:36;;;;;;;;;;;4.50;99.90;;;;;;5025526;28;19992;-59
2021/11/28 12:07:01;;;;;;;;;;;4.60;99.90;;;;;;5025154;28;19996;-57
2021/11/28 12:09:29;;;;;;;;;;;4.70;99.90;;;;;;5026266;28;20004;-58
2021/11/28 12:11:56;;;;;;;;;;;4.70;99.90;;;;;;5025249;28;19924;-58
2021/11/28 12:14:21;;;;;;;;;;;4.70;99.90;;;;;;5026528;28;19967;-56
2021/11/28 12:16:47;;;;;;;;;;;4.80;99.90;;;;;;5029941;28;19975;-59
2021/11/28 12:19:32;;;;;;;;;;;4.80;99.90;;;;;;5029027;28;20016;-57
2021/11/28 12:21:57;;;;;;;;;;;4.90;99.90;;;;;;5028482;28;19917;-57
2021/11/28 12:24:28;;;;;;;;;;;4.90;99.90;;;;;;5030147;28;19909;-59
2021/11/28 12:26:55;;;;;;;;;;;4.90;99.90;;;;;;5029030;28;19925;-58
2021/11/28 12:29:24;;;;;;;;;;;5.00;99.90;;;;;;5030194;28;19913;-57
2021/11/28 12:31:51;;;;;;;;;;;4.90;99.90;;;;;;5026920;28;19928;-59
2021/11/28 12:34:17;;;;;;;;;;;5.00;99.90;;;;;;5029555;28;20456;-57
2021/11/28 12:36:55;;;;;;;;;;;5.00;99.90;;;;;;5029283;28;19917;-55
2021/11/28 12:39:22;;;;;;;;;;;5.10;99.90;;;;;;5030017;28;19916;-58
2021/11/28 12:41:48;;;;;;;;;;;5.00;99.90;;;;;;5028747;28;20377;-59
2021/11/28 12:44:15;;;;;;;;;;;5.10;99.90;;;;;;5029412;28;19920;-60
2021/11/28 12:46:41;;;;;;;;;;;5.00;99.90;;;;;;5028310;28;19913;-57
2021/11/28 12:49:25;;;;;;;;;;;5.00;99.90;;;;;;5026775;28;19959;-58
2021/11/28 12:51:50;;;;;;;;;;;5.10;99.90;;;;;;5028288;28;20404;-59
2021/11/28 12:54:26;;;;;;;;;;;5.10;99.90;;;;;;5028665;28;20377;-59
2021/11/28 12:57:15;;;;;;;;;;;5.10;99.90;;;;;;5028631;28;19913;-58
2021/11/28 12:59:40;;;;;;;;;;;5.10;99.90;;;;;;5017703;28;19920;-60
2021/11/28 13:02:06;;;;;;;;;;;5.10;99.90;;;;;;5027432;28;19921;-58
2021/11/28 13:04:40;;;;;;;;;;;5.10;99.90;;;;;;5025936;28;20004;-58
2021/11/28 13:07:24;;;;;;;;;;;5.10;99.90;;;;;;5027362;28;19920;-55
2021/11/28 13:09:50;;;;;;;;;;;5.20;99.90;;;;;;5028799;28;19940;-58
2021/11/28 13:12:16;;;;;;;;;;;5.20;99.90;;;;;;5026981;28;19925;-55
2021/11/28 13:14:45;;;;;;;;;;;5.20;99.90;;;;;;5026695;28;19921;-56
2021/11/28 13:17:10;;;;;;;;;;;5.20;99.90;;;;;;5026373;28;19917;-55
2021/11/28 13:19:36;;;;;;;;;;;5.20;99.90;;;;;;5027903;28;20231;-59
2021/11/28 13:22:12;;;;;;;;;;;5.10;99.90;;;;;;5027403;28;19960;-58
2021/11/28 13:24:37;;;;;;;;;;;5.10;99.90;;;;;;5027824;28;20382;-57
2021/11/28 13:29:35;;;;;;;;;;;5.00;99.90;;;;;;5025856;28;19964;-60
2021/11/28 13:32:01;;;;;;;;;;;4.90;99.90;;;;;;5025954;28;19956;-59
2021/11/28 13:34:30;;;;;;;;;;;4.90;99.90;;;;;;5028082;28;20427;-60
2021/11/28 13:36:56;;;;;;;;;;;4.90;99.90;;;;;;5024507;28;19916;-59
2021/11/28 13:39:22;;;;;;;;;;;4.80;99.90;;;;;;5028018;28;20307;-60
2021/11/28 13:41:51;;;;;;;;;;;4.70;99.90;;;;;;5027690;28;19917;-60
2021/11/28 13:44:18;;;;;;;;;;;4.70;99.90;;;;;;5027433;28;19909;-59
2021/11/28 13:46:48;;;;;;;;;;;4.70;99.90;;;;;;5027595;28;19999;-59
2021/11/28 13:49:13;;;;;;;;;;;4.70;99.90;;;;;;5027813;28;19920;-59
2021/11/28 13:51:48;;;;;;;;;;;4.70;99.90;;;;;;5027442;28;19921;-59
2021/11/28 13:54:26;;;;;;;;;;;4.70;99.90;;;;;;5027788;28;19913;-60
2021/11/28 13:56:51;;;;;;;;;;;4.70;99.90;;;;;;5027771;28;19971;-61
2021/11/28 13:59:18;;;;;;;;;;;4.70;99.90;;;;;;5026982;28;20180;-61
2021/11/28 14:01:44;;;;;;;;;;;4.70;99.90;;;;;;5027719;28;19992;-61
2021/11/28 14:04:16;;;;;;;;;;;4.70;99.90;;;;;;5027303;28;19995;-61
2021/11/28 14:06:42;;;;;;;;;;;4.70;99.90;;;;;;5027361;28;19913;-60
2021/11/28 14:09:10;;;;;;;;;;;4.70;99.90;;;;;;5026303;28;19909;-60
2021/11/28 14:11:40;;;;;;;;;;;4.70;99.90;;;;;;5008450;28;19909;-61
2021/11/28 14:14:05;;;;;;;;;;;4.70;99.90;;;;;;5027082;28;19913;-60
2021/11/28 14:16:31;;;;;;;;;;;4.70;99.90;;;;;;5027514;28;19920;-60
2021/11/28 14:18:59;;;;;;;;;;;4.70;99.90;;;;;;5027791;28;19909;-61
2021/11/28 14:21:39;;;;;;;;;;;4.70;99.90;;;;;;5026775;28;19913;-60
2021/11/28 14:24:23;;;;;;;;;;;4.70;99.90;;;;;;5025383;28;19928;-60
2021/11/28 14:26:48;;;;;;;;;;;4.60;99.90;;;;;;5027975;28;19944;-61
2021/11/28 14:29:23;;;;;;;;;;;4.60;99.90;;;;;;5025599;28;20002;-60
2021/11/28 14:31:59;;;;;;;;;;;4.60;99.90;;;;;;5009681;28;19909;-60
2021/11/28 14:34:25;;;;;;;;;;;4.60;99.90;;;;;;5026251;28;19920;-60
2021/11/28 14:36:50;;;;;;;;;;;4.50;99.90;;;;;;5027117;28;20285;-60